SAS538 EIDW-EKCH
Flight info
| Callsign | SAS538 |
|---|---|
| Flight time | N/A |
| Altitude | 37000 |
| Route | EIDW/10R ROTEV DCT GOTNA DCT BLACA DCT SURAT DCT PETIL DCT TESPI |
| Aircraft | A320/M-SDE3FGHIJ1RWXYZ/ALB1 |
Departure
| Time | 2026-05-04 16:05 |
|---|---|
| Airport | Dublin Airport (EIDW) |
Arrival
| Time | N/A |
|---|---|
| Airport | Copenhagen Kastrup Airport (EKCH) |
| Time | Latitude | Longitude | Altitude | Speed | Heading |
|---|---|---|---|---|---|
| 2026-05-04 15:54 | 53.43103 | -6.25361 | 211 ft | 1 kts | 159° |
| 2026-05-04 15:54 | 53.43089 | -6.25352 | 213 ft | 3 kts | 158° |
| 2026-05-04 15:54 | 53.43079 | -6.25346 | 214 ft | 0 kts | 158° |
| 2026-05-04 15:55 | 53.43071 | -6.25339 | 216 ft | 2 kts | 156° |
| 2026-05-04 15:55 | 53.43067 | -6.25336 | 211 ft | 1 kts | 156° |
| 2026-05-04 15:55 | 53.43057 | -6.25328 | 214 ft | 0 kts | 155° |
| 2026-05-04 15:55 | 53.43052 | -6.25324 | 216 ft | 1 kts | 154° |
| 2026-05-04 15:56 | 53.43047 | -6.25320 | 214 ft | 0 kts | 154° |
| 2026-05-04 15:56 | 53.43045 | -6.25319 | 214 ft | 0 kts | 154° |
| 2026-05-04 15:56 | 53.43044 | -6.25318 | 213 ft | 1 kts | 154° |
| 2026-05-04 15:57 | 53.43042 | -6.25317 | 213 ft | 0 kts | 154° |
| 2026-05-04 15:57 | 53.43033 | -6.25309 | 211 ft | 3 kts | 154° |
| 2026-05-04 15:57 | 53.43017 | -6.25297 | 214 ft | 5 kts | 154° |
| 2026-05-04 15:57 | 53.42994 | -6.25278 | 211 ft | 6 kts | 155° |
| 2026-05-04 15:58 | 53.42982 | -6.25270 | 218 ft | 3 kts | 157° |
| 2026-05-04 15:58 | 53.42939 | -6.25240 | 216 ft | 11 kts | 157° |
| 2026-05-04 15:58 | 53.42892 | -6.25207 | 215 ft | 2 kts | 157° |
| 2026-05-04 15:58 | 53.42851 | -6.25191 | 211 ft | 10 kts | 182° |
| 2026-05-04 15:59 | 53.42796 | -6.25254 | 211 ft | 7 kts | 223° |
| 2026-05-04 15:59 | 53.42759 | -6.25314 | 211 ft | 11 kts | 224° |
| 2026-05-04 15:59 | 53.42712 | -6.25391 | 216 ft | 12 kts | 224° |
| 2026-05-04 15:59 | 53.42633 | -6.25523 | 211 ft | 20 kts | 225° |
| 2026-05-04 16:00 | 53.42521 | -6.25720 | 215 ft | 24 kts | 225° |
| 2026-05-04 16:00 | 53.42400 | -6.25920 | 214 ft | 22 kts | 225° |
| 2026-05-04 16:00 | 53.42313 | -6.26075 | 214 ft | 17 kts | 230° |
| 2026-05-04 16:00 | 53.42269 | -6.26296 | 211 ft | 24 kts | 270° |
| 2026-05-04 16:01 | 53.42278 | -6.26501 | 216 ft | 11 kts | 275° |
| 2026-05-04 16:01 | 53.42287 | -6.26680 | 211 ft | 19 kts | 275° |
| 2026-05-04 16:01 | 53.42299 | -6.26909 | 211 ft | 21 kts | 275° |
| 2026-05-04 16:01 | 53.42315 | -6.27189 | 214 ft | 28 kts | 276° |
| 2026-05-04 16:02 | 53.42324 | -6.27353 | 215 ft | 15 kts | 275° |
| 2026-05-04 16:02 | 53.42329 | -6.27467 | 211 ft | 2 kts | 275° |
| 2026-05-04 16:02 | 53.42342 | -6.27690 | 211 ft | 17 kts | 275° |
| 2026-05-04 16:03 | 53.42355 | -6.27938 | 211 ft | 25 kts | 275° |
| 2026-05-04 16:03 | 53.42372 | -6.28258 | 211 ft | 31 kts | 275° |
| 2026-05-04 16:03 | 53.42392 | -6.28634 | 211 ft | 32 kts | 277° |
| 2026-05-04 16:03 | 53.42407 | -6.28962 | 215 ft | 23 kts | 260° |
| 2026-05-04 16:04 | 53.42302 | -6.29066 | 210 ft | 17 kts | 173° |
| 2026-05-04 16:04 | 53.42235 | -6.28795 | 215 ft | 48 kts | 95° |
| 2026-05-04 16:04 | 53.42180 | -6.27809 | 211 ft | 117 kts | 94° |
| 2026-05-04 16:05 | 53.42081 | -6.26132 | 296 ft | 166 kts | 96° |
| 2026-05-04 16:05 | 53.41960 | -6.24168 | 1042 ft | 173 kts | 95° |
| 2026-05-04 16:05 | 53.41738 | -6.19793 | 2414 ft | 206 kts | 93° |
| 2026-05-04 16:06 | 53.41603 | -6.17272 | 2806 ft | 228 kts | 92° |
| 2026-05-04 16:06 | 53.41169 | -6.09421 | 4459 ft | 267 kts | 94° |
| 2026-05-04 16:07 | 53.40937 | -6.05271 | 5575 ft | 273 kts | 94° |
| 2026-05-04 16:07 | 53.43530 | -5.97265 | 7945 ft | 281 kts | 22° |
| 2026-05-04 16:08 | 53.45436 | -5.96585 | 8749 ft | 282 kts | 358° |
| 2026-05-04 16:08 | 53.51359 | -5.98400 | 10607 ft | 309 kts | 348° |
| 2026-05-04 16:09 | 53.55779 | -5.99857 | 11518 ft | 331 kts | 349° |
| 2026-05-04 16:09 | 53.60376 | -6.01342 | 12852 ft | 339 kts | 348° |
| 2026-05-04 16:10 | 53.65047 | -6.02844 | 14187 ft | 345 kts | 348° |
| 2026-05-04 16:11 | 53.72170 | -6.05145 | 16005 ft | 353 kts | 352° |
| 2026-05-04 16:11 | 53.74629 | -6.05429 | 16576 ft | 356 kts | 358° |
| 2026-05-04 16:12 | 53.82157 | -6.05737 | 18365 ft | 365 kts | 359° |
| 2026-05-04 16:12 | 53.89864 | -6.06065 | 19990 ft | 373 kts | 359° |
| 2026-05-04 16:13 | 53.95092 | -6.06293 | 21071 ft | 378 kts | 359° |
| 2026-05-04 16:13 | 54.00360 | -6.06464 | 22091 ft | 383 kts | 4° |
| 2026-05-04 16:14 | 54.05550 | -6.04433 | 23121 ft | 386 kts | 24° |
| 2026-05-04 16:14 | 54.10426 | -6.00447 | 24049 ft | 392 kts | 26° |
| 2026-05-04 16:15 | 54.17899 | -5.94341 | 25214 ft | 401 kts | 25° |
| 2026-05-04 16:16 | 54.22954 | -5.90186 | 26036 ft | 404 kts | 25° |
| 2026-05-04 16:16 | 54.30605 | -5.83861 | 27208 ft | 410 kts | 25° |
| 2026-05-04 16:17 | 54.35727 | -5.79624 | 27953 ft | 413 kts | 25° |
| 2026-05-04 16:18 | 54.43587 | -5.73102 | 28929 ft | 422 kts | 24° |
| 2026-05-04 16:18 | 54.46235 | -5.70900 | 29286 ft | 424 kts | 24° |
| 2026-05-04 16:19 | 54.54257 | -5.64200 | 30302 ft | 430 kts | 24° |
| 2026-05-04 16:19 | 54.59569 | -5.59387 | 30993 ft | 432 kts | 33° |
| 2026-05-04 16:20 | 54.66430 | -5.49308 | 32023 ft | 437 kts | 39° |
| 2026-05-04 16:20 | 54.71003 | -5.42384 | 32789 ft | 437 kts | 39° |
| 2026-05-04 16:21 | 54.77837 | -5.31989 | 34037 ft | 434 kts | 39° |
| 2026-05-04 16:22 | 54.82366 | -5.25061 | 34697 ft | 433 kts | 40° |
| 2026-05-04 16:22 | 54.88288 | -5.13409 | 35551 ft | 436 kts | 61° |
| 2026-05-04 16:23 | 54.91111 | -4.98345 | 36305 ft | 439 kts | 73° |
| 2026-05-04 16:24 | 54.94311 | -4.77754 | 37063 ft | 444 kts | 74° |
| 2026-05-04 16:25 | 54.95925 | -4.67320 | 37074 ft | 447 kts | 74° |
| 2026-05-04 16:26 | 55.01502 | -4.30673 | 37070 ft | 447 kts | 74° |
| 2026-05-04 16:28 | 55.05414 | -4.04446 | 37056 ft | 448 kts | 75° |
| 2026-05-04 16:29 | 55.10811 | -3.67572 | 37056 ft | 448 kts | 75° |